Wind Star — C6CA9 — position and weather

sailwx.info

Track history (hours):
 
Tides and Currents Weather Stations Pressure Air Temp Water Temp Dewpoint Dewpoint Depression Visibility Wind Speed Wind Dir Waves Ship Positions

Wind Star

Operator: Holland America Line

Last reported at 2016-Jun-19 20:34 UTC. Time now 2016-Jun-30 06:55 UTC.
Position N 37°08' E 024°54'.
Warning: this ship's position is 10 days out of date.

Length 134 m; draft 4.2 m.

Type: Passenger vessel. MMSI: 309163000.

Date/timePositionNaut miles runAvg speedWind from/ knotsBaromVisibWave heightAir tempDewpointWater temp
2016-Jun-19 20:34N 37°08' E 024°54'8 7.7
2016-Jun-19 19:33N 37°15' E 024°58'8 8.3
2016-Jun-19 18:33N 37°21' E 025°06'9 9.0
2016-Jun-19 17:34N 37°27' E 025°14'4 3.7
2016-Jun-19 16:30N 37°27' E 025°19'0 0.0
2016-Jun-19 15:33N 37°27' E 025°19'0 0.0
2016-Jun-19 14:30N 37°27' E 025°19'0 0.0
2016-Jun-19 13:33N 37°27' E 025°19'0 0.0
2016-Jun-19 12:33N 37°27' E 025°19'0 0.0
2016-Jun-19 11:30N 37°27' E 025°19'0 0.0
2016-Jun-19 10:30N 37°27' E 025°19'0 0.1
2016-Jun-19 09:33N 37°27' E 025°19'0 0.1
2016-Jun-19 08:33N 37°27' E 025°19'0 0.0
2016-Jun-19 07:18N 37°27' E 025°19'0 0.0
2016-Jun-19 06:33N 37°27' E 025°19'0 0.0
2016-Jun-19 05:30N 37°27' E 025°19'0 0.2
2016-Jun-19 04:27N 37°26' E 025°19'3 3.6
2016-Jun-19 03:34N 37°28' E 025°15'7 7.1
2016-Jun-19 02:33N 37°29' E 025°07'14 6.3
2016-Jun-19 00:24N 37°31' E 024°50'33 6.6
2016-Jun-18 19:25N 37°35' E 024°09'10 5.2
2016-Jun-18 17:33N 37°38' E 023°57'8 7.8
2016-Jun-18 16:33N 37°38' E 023°48'8 7.9
2016-Jun-18 15:33N 37°44' E 023°40'10 9.8
2016-Jun-18 14:33N 37°53' E 023°37'4 3.5
2016-Jun-18 13:32N 37°56' E 023°38'0 0.0
2016-Jun-18 12:32N 37°56' E 023°38'0 0.0
2016-Jun-18 11:32N 37°56' E 023°38'0 0.0
2016-Jun-18 10:32N 37°56' E 023°38'0 0.0
2016-Jun-18 09:32N 37°56' E 023°38'0 0.0
2016-Jun-18 08:32N 37°56' E 023°38'0 0.0
2016-Jun-18 07:32N 37°56' E 023°38'0 0.0
2016-Jun-18 06:32N 37°56' E 023°38'0 0.0
2016-Jun-18 05:32N 37°56' E 023°38'0 0.0
2016-Jun-18 04:29N 37°56' E 023°38'1 0.9
2016-Jun-18 03:33N 37°56' E 023°37'3 2.6
2016-Jun-18 02:33N 37°54' E 023°38'7 7.1
2016-Jun-18 01:33N 37°47' E 023°41'7 7.1
2016-Jun-18 00:33N 37°41' E 023°45'7 6.7
2016-Jun-17 23:33N 37°36' E 023°51'8 7.5
2016-Jun-17 22:32N 37°33' E 024°00'37 7.3
2016-Jun-17 17:33N 37°30' E 024°46'15 7.6
2016-Jun-17 15:33N 37°30' E 025°05'9 9.0
2016-Jun-17 14:33N 37°28' E 025°16'2 2.4
2016-Jun-17 13:32N 37°27' E 025°19'0 0.1
2016-Jun-17 12:32N 37°27' E 025°19'0 0.0
2016-Jun-17 11:32N 37°27' E 025°19'0 0.0
2016-Jun-17 10:20N 37°27' E 025°19'0 0.1
2016-Jun-17 09:32N 37°27' E 025°19'0 0.0
2016-Jun-17 08:23N 37°27' E 025°19'0 0.0
2016-Jun-17 07:23N 37°27' E 025°19'0 0.0
2016-Jun-17 06:32N 37°27' E 025°19'0 0.0
2016-Jun-17 05:32N 37°27' E 025°19'0 0.0
2016-Jun-17 04:26N 37°27' E 025°19'3 3.7
2016-Jun-17 03:33N 37°27' E 025°15'7 6.8
2016-Jun-17 02:33N 37°24' E 025°08'10 7.9
2016-Jun-17 01:21N 37°16' E 024°60'7 8.5
2016-Jun-17 00:33N 37°11' E 024°55'  
2016-Jun-12 09:12N 39°44' E 025°47'1710.1
2016-Jun-12 07:33N 39°59' E 025°56'132 8.7
2016-Jun-11 16:24N 40°44' E 028°38'910.8
2016-Jun-11 15:33N 40°50' E 028°47'1211.1
2016-Jun-11 14:31N 40°58' E 028°58'1 0.1
2016-Jun-11 02:31N 40°58' E 028°59'7 6.2
2016-Jun-11 01:22N 40°52' E 028°53'  
Track history (hours):
 
Tides and Currents Weather Stations Pressure Air Temp Water Temp Dewpoint Dewpoint Depression Visibility Wind Speed Wind Dir Waves Ship Positions

Wind Star

Operator: Holland America Line

Last reported at 2016-Jun-19 20:34 UTC. Time now 2016-Jun-30 06:55 UTC.
Position N 37°08' E 024°54'.
Warning: this ship's position is 10 days out of date.

Length 134 m; draft 4.2 m.

Type: Passenger vessel. MMSI: 309163000.

Date/timePositionNaut miles runAvg speedWind from/ knotsBaromVisibWave heightAir tempDewpointWater temp
2016-Jun-19 20:34N 37°08' E 024°54'8 7.7
2016-Jun-19 19:33N 37°15' E 024°58'8 8.3
2016-Jun-19 18:33N 37°21' E 025°06'9 9.0
2016-Jun-19 17:34N 37°27' E 025°14'4 3.7
2016-Jun-19 16:30N 37°27' E 025°19'0 0.0
2016-Jun-19 15:33N 37°27' E 025°19'0 0.0
2016-Jun-19 14:30N 37°27' E 025°19'0 0.0
2016-Jun-19 13:33N 37°27' E 025°19'0 0.0
2016-Jun-19 12:33N 37°27' E 025°19'0 0.0
2016-Jun-19 11:30N 37°27' E 025°19'0 0.0
2016-Jun-19 10:30N 37°27' E 025°19'0 0.1
2016-Jun-19 09:33N 37°27' E 025°19'0 0.1
2016-Jun-19 08:33N 37°27' E 025°19'0 0.0
2016-Jun-19 07:18N 37°27' E 025°19'0 0.0
2016-Jun-19 06:33N 37°27' E 025°19'0 0.0
2016-Jun-19 05:30N 37°27' E 025°19'0 0.2
2016-Jun-19 04:27N 37°26' E 025°19'3 3.6
2016-Jun-19 03:34N 37°28' E 025°15'7 7.1
2016-Jun-19 02:33N 37°29' E 025°07'14 6.3
2016-Jun-19 00:24N 37°31' E 024°50'33 6.6
2016-Jun-18 19:25N 37°35' E 024°09'10 5.2
2016-Jun-18 17:33N 37°38' E 023°57'8 7.8
2016-Jun-18 16:33N 37°38' E 023°48'8 7.9
2016-Jun-18 15:33N 37°44' E 023°40'10 9.8
2016-Jun-18 14:33N 37°53' E 023°37'4 3.5
2016-Jun-18 13:32N 37°56' E 023°38'0 0.0
2016-Jun-18 12:32N 37°56' E 023°38'0 0.0
2016-Jun-18 11:32N 37°56' E 023°38'0 0.0
2016-Jun-18 10:32N 37°56' E 023°38'0 0.0
2016-Jun-18 09:32N 37°56' E 023°38'0 0.0
2016-Jun-18 08:32N 37°56' E 023°38'0 0.0
2016-Jun-18 07:32N 37°56' E 023°38'0 0.0
2016-Jun-18 06:32N 37°56' E 023°38'0 0.0
2016-Jun-18 05:32N 37°56' E 023°38'0 0.0
2016-Jun-18 04:29N 37°56' E 023°38'1 0.9
2016-Jun-18 03:33N 37°56' E 023°37'3 2.6
2016-Jun-18 02:33N 37°54' E 023°38'7 7.1
2016-Jun-18 01:33N 37°47' E 023°41'7 7.1
2016-Jun-18 00:33N 37°41' E 023°45'7 6.7
2016-Jun-17 23:33N 37°36' E 023°51'8 7.5
2016-Jun-17 22:32N 37°33' E 024°00'37 7.3
2016-Jun-17 17:33N 37°30' E 024°46'15 7.6
2016-Jun-17 15:33N 37°30' E 025°05'9 9.0
2016-Jun-17 14:33N 37°28' E 025°16'2 2.4
2016-Jun-17 13:32N 37°27' E 025°19'0 0.1
2016-Jun-17 12:32N 37°27' E 025°19'0 0.0
2016-Jun-17 11:32N 37°27' E 025°19'0 0.0
2016-Jun-17 10:20N 37°27' E 025°19'0 0.1
2016-Jun-17 09:32N 37°27' E 025°19'0 0.0
2016-Jun-17 08:23N 37°27' E 025°19'0 0.0
2016-Jun-17 07:23N 37°27' E 025°19'0 0.0
2016-Jun-17 06:32N 37°27' E 025°19'0 0.0
2016-Jun-17 05:32N 37°27' E 025°19'0 0.0
2016-Jun-17 04:26N 37°27' E 025°19'3 3.7
2016-Jun-17 03:33N 37°27' E 025°15'7 6.8
2016-Jun-17 02:33N 37°24' E 025°08'10 7.9
2016-Jun-17 01:21N 37°16' E 024°60'7 8.5
2016-Jun-17 00:33N 37°11' E 024°55'  
2016-Jun-12 09:12N 39°44' E 025°47'1710.1
2016-Jun-12 07:33N 39°59' E 025°56'132 8.7
2016-Jun-11 16:24N 40°44' E 028°38'910.8
2016-Jun-11 15:33N 40°50' E 028°47'1211.1
2016-Jun-11 14:31N 40°58' E 028°58'1 0.1
2016-Jun-11 02:31N 40°58' E 028°59'7 6.2
2016-Jun-11 01:22N 40°52' E 028°53'  

Dump ship's entire track history